Terminal Aerodrome Forecast
Issued by NWS

Home | Current Version | Previous Version | Text Only | Print | Product List | Glossary On
Versions: 1 2 3 4 5 6 7 8 9 10 11 12 13 14
458
FTUS46 KPDT 201120
TAFRDM
TAF
KRDM 201120Z 2012/2112 24005KT P6SM SKC
     FM201800 31011KT P6SM SKC
     FM210600 VRB05KT P6SM SKC=

USA.gov is the U.S. government's official web portal to all federal, state and local government web resources and services.